createdAt,value
2019-05-28T00:02:03.832Z,14.53
2019-05-28T00:04:38.791Z,14.51
2019-05-28T00:07:10.420Z,14.50
2019-05-28T00:09:42.112Z,14.48
2019-05-28T00:12:12.058Z,14.43
2019-05-28T00:14:43.702Z,14.35
2019-05-28T00:17:17.417Z,14.29
2019-05-28T00:19:47.406Z,14.34
2019-05-28T00:22:17.401Z,14.33
2019-05-28T00:24:47.406Z,14.32
2019-05-28T00:27:22.473Z,14.28
2019-05-28T00:29:52.490Z,14.30
2019-05-28T00:32:22.644Z,14.31
2019-05-28T00:34:54.279Z,14.27
2019-05-28T00:37:24.363Z,14.15
2019-05-28T00:39:54.552Z,14.08
2019-05-28T00:42:26.534Z,14.04
2019-05-28T00:44:56.731Z,14.01
2019-05-28T00:47:26.818Z,13.96
2019-05-28T00:49:59.649Z,14.01
2019-05-28T00:52:30.002Z,13.99
2019-05-28T00:55:04.509Z,14.02
2019-05-28T00:57:36.527Z,14.00
2019-05-28T01:00:07.259Z,13.99
2019-05-28T01:02:37.814Z,14.07
2019-05-28T01:05:12.039Z,14.07
2019-05-28T01:07:46.945Z,14.15
2019-05-28T01:10:17.197Z,14.14
2019-05-28T01:12:48.391Z,14.12
2019-05-28T01:15:18.453Z,14.10
2019-05-28T01:17:48.478Z,14.15
2019-05-28T01:20:19.179Z,14.22
2019-05-28T01:22:49.188Z,14.27
2019-05-28T01:25:19.208Z,14.24
2019-05-28T01:27:49.201Z,14.23
2019-05-28T01:30:19.366Z,14.22
2019-05-28T01:32:49.732Z,14.22
2019-05-28T01:35:20.274Z,14.26
2019-05-28T01:37:54.487Z,14.17
2019-05-28T01:40:24.530Z,14.10
2019-05-28T01:42:59.705Z,14.05
2019-05-28T01:45:29.752Z,14.01
2019-05-28T01:47:59.738Z,13.94
2019-05-28T01:50:29.756Z,13.90
2019-05-28T01:53:00.357Z,13.87
2019-05-28T01:55:30.862Z,13.85
2019-05-28T01:58:02.394Z,13.78
2019-05-28T02:00:32.405Z,13.78
2019-05-28T02:03:06.166Z,13.75
2019-05-28T02:05:38.743Z,13.72
2019-05-28T02:08:08.812Z,13.67
2019-05-28T02:10:39.892Z,13.54
2019-05-28T02:13:13.482Z,13.48
2019-05-28T02:15:43.768Z,13.46
2019-05-28T02:18:14.285Z,13.54
2019-05-28T02:20:44.389Z,13.63
2019-05-28T02:23:14.545Z,13.75
2019-05-28T02:25:44.529Z,13.82
2019-05-28T02:28:14.539Z,13.83
2019-05-28T02:30:44.624Z,13.84
2019-05-28T02:33:14.610Z,13.92
2019-05-28T02:35:44.792Z,13.92
2019-05-28T02:38:14.812Z,13.90
2019-05-28T02:40:46.866Z,13.84
2019-05-28T02:43:20.159Z,13.85
2019-05-28T02:45:51.703Z,13.81
2019-05-28T02:48:21.707Z,13.69
2019-05-28T02:50:57.173Z,13.63
2019-05-28T02:53:28.450Z,13.61
2019-05-28T02:55:59.681Z,13.60
2019-05-28T02:58:38.825Z,13.53
2019-05-28T03:01:10.075Z,13.56
2019-05-28T03:03:44.388Z,13.65
2019-05-28T03:06:14.549Z,13.67
2019-05-28T03:08:48.779Z,13.74
2019-05-28T03:11:20.374Z,13.78
2019-05-28T03:13:53.246Z,13.74
2019-05-28T03:16:32.491Z,13.68
2019-05-28T03:19:09.012Z,13.69
2019-05-28T03:21:41.271Z,13.75
2019-05-28T03:24:14.515Z,13.72
2019-05-28T03:26:44.988Z,13.71
2019-05-28T03:29:15.756Z,13.71
2019-05-28T03:32:06.114Z,13.67
2019-05-28T03:34:19.932Z,13.70
2019-05-28T03:36:55.214Z,13.67
2019-05-28T03:39:26.871Z,13.69
2019-05-28T03:41:58.633Z,13.66
2019-05-28T03:44:28.656Z,13.56
2019-05-28T03:46:58.671Z,13.59
2019-05-28T03:49:28.683Z,13.61
2019-05-28T03:51:58.679Z,13.63
2019-05-28T03:54:31.681Z,13.61
2019-05-28T03:57:01.747Z,13.58
2019-05-28T03:59:31.767Z,13.57
2019-05-28T04:02:01.999Z,13.53
2019-05-28T04:04:32.073Z,13.49
2019-05-28T04:07:02.067Z,13.52
2019-05-28T04:09:33.941Z,13.50
2019-05-28T04:12:05.532Z,13.35
2019-05-28T04:14:35.545Z,13.36
2019-05-28T04:17:05.542Z,13.42
2019-05-28T04:19:35.744Z,13.32
2019-05-28T04:22:08.643Z,13.32
2019-05-28T04:24:38.789Z,13.28
2019-05-28T04:27:09.249Z,13.31
2019-05-28T04:29:42.253Z,13.28
2019-05-28T04:32:12.242Z,13.25
2019-05-28T04:34:45.422Z,13.25
2019-05-28T04:37:15.432Z,13.35
2019-05-28T04:39:50.029Z,13.42
2019-05-28T04:42:20.021Z,13.37
2019-05-28T04:44:50.107Z,13.44
2019-05-28T04:47:21.625Z,13.47
2019-05-28T04:49:52.953Z,13.43
2019-05-28T04:52:23.407Z,13.46
2019-05-28T04:54:54.466Z,13.48
2019-05-28T04:57:24.467Z,13.41
2019-05-28T04:59:54.480Z,13.44
2019-05-28T05:02:24.588Z,13.46
2019-05-28T05:04:54.585Z,13.53
2019-05-28T05:07:28.165Z,13.57
2019-05-28T05:09:59.935Z,13.54
2019-05-28T05:12:29.927Z,13.52
2019-05-28T05:14:59.975Z,13.50
2019-05-28T05:17:29.989Z,13.55
2019-05-28T05:20:02.752Z,13.63
2019-05-28T05:22:32.845Z,13.77
2019-05-28T05:25:03.294Z,13.89
2019-05-28T05:27:33.308Z,13.96
2019-05-28T05:30:07.998Z,14.00
2019-05-28T05:32:35.302Z,14.04
2019-05-28T05:35:06.451Z,14.10
2019-05-28T05:37:36.525Z,14.16
2019-05-28T05:40:07.638Z,14.20
2019-05-28T05:42:37.713Z,14.18
2019-05-28T05:45:09.234Z,14.20
2019-05-28T05:47:39.409Z,14.17
2019-05-28T05:50:10.933Z,14.17
2019-05-28T05:52:43.657Z,14.00
2019-05-28T05:55:15.812Z,14.11
2019-05-28T05:57:45.809Z,14.00
2019-05-28T06:00:20.057Z,13.92
2019-05-28T06:02:50.244Z,14.13
2019-05-28T06:05:20.379Z,14.25
2019-05-28T06:07:50.495Z,14.16
2019-05-28T06:10:20.621Z,14.12
2019-05-28T06:12:50.734Z,14.02
2019-05-28T06:15:21.949Z,14.10
2019-05-28T06:17:55.048Z,14.14
2019-05-28T06:20:25.109Z,14.30
2019-05-28T06:22:55.130Z,14.24
2019-05-28T06:25:25.541Z,14.44
2019-05-28T06:27:55.687Z,14.53
2019-05-28T06:30:25.825Z,14.67
2019-05-28T06:32:56.211Z,14.76
2019-05-28T06:35:26.280Z,14.88
2019-05-28T06:37:56.438Z,14.96
2019-05-28T06:40:26.995Z,15.15
2019-05-28T06:42:57.074Z,15.22
2019-05-28T06:45:27.325Z,15.08
2019-05-28T06:47:57.343Z,14.95
2019-05-28T06:50:28.051Z,15.08
2019-05-28T06:52:58.074Z,14.88
2019-05-28T06:55:28.056Z,14.92
2019-05-28T06:57:58.070Z,14.85
2019-05-28T07:00:28.427Z,14.70
2019-05-28T07:02:58.426Z,14.89
2019-05-28T07:05:28.534Z,15.01
2019-05-28T07:07:58.696Z,14.82
2019-05-28T07:10:28.795Z,15.07
2019-05-28T07:12:58.916Z,15.23
2019-05-28T07:15:28.907Z,15.49
2019-05-28T07:17:59.805Z,15.69
2019-05-28T07:20:30.173Z,15.72
2019-05-28T07:23:00.243Z,15.81
2019-05-28T07:25:30.315Z,15.76
2019-05-28T07:28:10.533Z,15.66
2019-05-28T07:30:32.094Z,15.72
2019-05-28T07:33:02.126Z,15.74
2019-05-28T07:35:44.855Z,15.58
2019-05-28T07:38:03.994Z,15.63
2019-05-28T07:40:33.989Z,15.57
2019-05-28T07:43:03.997Z,15.48
2019-05-28T07:45:34.028Z,15.48
2019-05-28T07:48:04.086Z,15.67
2019-05-28T07:50:35.689Z,15.38
2019-05-28T07:53:05.921Z,15.73
2019-05-28T07:55:38.690Z,15.84
2019-05-28T07:58:08.776Z,15.99
2019-05-28T08:00:42.995Z,16.20
2019-05-28T08:03:14.595Z,16.33
2019-05-28T08:05:45.594Z,16.35
2019-05-28T08:08:18.116Z,16.34
2019-05-28T08:10:48.201Z,16.39
2019-05-28T08:13:18.275Z,16.57
2019-05-28T08:15:48.671Z,16.63
2019-05-28T08:18:21.719Z,16.80
2019-05-28T08:20:51.748Z,16.63
2019-05-28T08:23:21.820Z,16.66
2019-05-28T08:25:51.822Z,16.62
2019-05-28T08:28:21.908Z,16.84
2019-05-28T08:30:51.990Z,16.94
2019-05-28T08:33:22.128Z,16.71
2019-05-28T08:35:52.407Z,16.58
2019-05-28T08:38:22.500Z,16.84
2019-05-28T08:40:52.506Z,17.39
2019-05-28T08:43:22.656Z,17.51
2019-05-28T08:45:52.730Z,17.52
2019-05-28T08:48:22.978Z,17.71
2019-05-28T08:50:53.214Z,17.41
2019-05-28T08:53:23.373Z,17.28
2019-05-28T08:55:53.375Z,17.11
2019-05-28T08:58:23.395Z,17.55
2019-05-28T09:00:53.382Z,17.10
2019-05-28T09:03:23.410Z,17.59
2019-05-28T09:05:53.421Z,17.76
2019-05-28T09:08:37.603Z,17.95
2019-05-28T09:10:55.271Z,17.85
2019-05-28T09:13:25.522Z,18.02
2019-05-28T09:15:55.534Z,18.01
2019-05-28T09:18:25.561Z,17.90
2019-05-28T09:20:55.571Z,17.87
2019-05-28T09:23:25.750Z,17.50
2019-05-28T09:25:58.801Z,17.31
2019-05-28T09:28:31.060Z,17.49
2019-05-28T09:31:02.213Z,17.66
2019-05-28T09:33:32.307Z,17.88
2019-05-28T09:36:08.727Z,17.94
2019-05-28T09:38:34.092Z,17.88
2019-05-28T09:41:05.947Z,17.77
2019-05-28T09:43:35.899Z,17.86
2019-05-28T09:46:05.961Z,17.76
2019-05-28T09:48:37.293Z,18.04
2019-05-28T09:51:07.475Z,18.12
2019-05-28T09:53:37.524Z,17.85
2019-05-28T09:56:07.608Z,17.60
2019-05-28T09:58:37.597Z,17.88
2019-05-28T10:01:07.703Z,17.94
2019-05-28T10:03:37.701Z,18.13
2019-05-28T10:06:17.098Z,18.34
2019-05-28T10:08:41.397Z,18.07
2019-05-28T10:11:11.946Z,18.45
2019-05-28T10:13:42.139Z,18.51
2019-05-28T10:16:12.118Z,18.25
2019-05-28T10:18:42.278Z,18.24
2019-05-28T10:21:18.332Z,18.27
2019-05-28T10:23:44.080Z,18.30
2019-05-28T10:26:14.134Z,17.92
2019-05-28T10:28:44.314Z,17.89
2019-05-28T10:31:14.313Z,17.89
2019-05-28T10:33:44.322Z,18.03
2019-05-28T10:36:34.357Z,17.93
2019-05-28T10:38:48.922Z,18.12
2019-05-28T10:41:18.924Z,18.28
2019-05-28T10:43:48.938Z,18.24
2019-05-28T10:46:18.947Z,18.03
2019-05-28T10:48:48.972Z,17.70
2019-05-28T10:51:18.982Z,17.88
2019-05-28T10:53:49.051Z,18.04
2019-05-28T10:56:19.066Z,18.55
2019-05-28T10:58:49.092Z,18.61
2019-05-28T11:01:19.167Z,18.79
2019-05-28T11:03:49.316Z,18.98
2019-05-28T11:06:19.333Z,19.11
2019-05-28T11:08:49.338Z,19.12
2019-05-28T11:11:20.961Z,18.91
2019-05-28T11:13:53.548Z,19.33
2019-05-28T11:16:22.821Z,19.46
2019-05-28T11:18:52.958Z,19.60
2019-05-28T11:21:22.980Z,19.69
2019-05-28T11:23:53.075Z,19.41
2019-05-28T11:26:23.148Z,19.27
2019-05-28T11:28:53.201Z,19.16
2019-05-28T11:31:23.232Z,19.21
2019-05-28T11:33:53.724Z,18.50
2019-05-28T11:36:23.769Z,18.73
2019-05-28T11:38:53.779Z,18.55
2019-05-28T11:41:40.566Z,18.88
2019-05-28T11:43:55.565Z,19.24
2019-05-28T11:46:25.561Z,19.14
2019-05-28T11:48:55.595Z,18.79
2019-05-28T11:51:26.176Z,19.25
2019-05-28T11:53:56.363Z,19.42
2019-05-28T11:56:27.172Z,19.31
2019-05-28T11:58:57.278Z,19.20
2019-05-28T12:01:34.492Z,19.46
2019-05-28T12:03:59.020Z,19.72
2019-05-28T12:06:29.013Z,19.73
2019-05-28T12:08:59.042Z,19.58
2019-05-28T12:11:29.222Z,19.62
2019-05-28T12:13:59.225Z,19.76
2019-05-28T12:16:29.229Z,20.17
2019-05-28T12:18:59.304Z,20.38
2019-05-28T12:21:29.350Z,20.38
2019-05-28T12:23:59.411Z,20.10
2019-05-28T12:26:29.448Z,19.41
2019-05-28T12:29:00.480Z,19.53
2019-05-28T12:31:30.607Z,19.48
2019-05-28T12:34:00.700Z,19.06
2019-05-28T12:36:31.481Z,19.08
2019-05-28T12:39:01.562Z,19.59
2019-05-28T12:41:32.922Z,19.79
2019-05-28T12:44:02.945Z,20.05
2019-05-28T12:46:33.449Z,20.02
2019-05-28T12:49:03.435Z,19.62
2019-05-28T12:51:35.101Z,19.58
2019-05-28T12:54:05.263Z,19.85
2019-05-28T12:56:35.272Z,19.82
2019-05-28T12:59:05.421Z,19.74
2019-05-28T13:01:35.651Z,19.79
2019-05-28T13:04:06.221Z,19.81
2019-05-28T13:06:36.469Z,19.00
2019-05-28T13:09:08.324Z,18.63
2019-05-28T13:11:38.463Z,18.48
2019-05-28T13:14:08.509Z,18.22
2019-05-28T13:16:39.614Z,18.10
2019-05-28T13:19:12.664Z,17.58
2019-05-28T13:21:42.822Z,17.67
2019-05-28T13:24:14.399Z,17.84
2019-05-28T13:26:44.483Z,18.02
2019-05-28T13:29:14.568Z,18.03
2019-05-28T13:31:44.814Z,18.08
2019-05-28T13:34:14.902Z,18.19
2019-05-28T13:36:44.909Z,18.26
2019-05-28T13:39:15.011Z,18.24
2019-05-28T13:41:45.034Z,18.29
2019-05-28T13:44:15.095Z,18.35
2019-05-28T13:46:45.206Z,18.38
2019-05-28T13:49:16.897Z,18.74
2019-05-28T13:51:46.917Z,18.76
2019-05-28T13:54:16.929Z,18.96
2019-05-28T13:56:46.959Z,19.03
2019-05-28T13:59:17.044Z,19.17
2019-05-28T14:01:47.057Z,19.20
2019-05-28T14:04:17.149Z,19.26
2019-05-28T14:06:47.308Z,19.04
2019-05-28T14:09:17.387Z,18.93
2019-05-28T14:11:47.380Z,19.02
2019-05-28T14:14:17.564Z,18.94
2019-05-28T14:16:47.579Z,19.16
2019-05-28T14:19:17.637Z,19.33
2019-05-28T14:21:47.660Z,19.31
2019-05-28T14:24:17.662Z,19.36
2019-05-28T14:26:47.680Z,19.42
2019-05-28T14:29:17.785Z,19.62
2019-05-28T14:31:47.806Z,19.77
2019-05-28T14:34:18.801Z,19.51
2019-05-28T14:36:48.822Z,19.49
2019-05-28T14:39:18.845Z,19.50
2019-05-28T14:41:48.844Z,19.31
2019-05-28T14:44:18.862Z,19.10
2019-05-28T14:46:48.870Z,18.84
2019-05-28T14:49:18.936Z,18.62
2019-05-28T14:51:48.986Z,18.50
2019-05-28T14:54:19.044Z,18.43
2019-05-28T14:56:49.047Z,18.30
2019-05-28T14:59:19.137Z,18.24
2019-05-28T15:01:49.127Z,18.36
2019-05-28T15:04:19.148Z,18.43
2019-05-28T15:06:49.320Z,18.38
2019-05-28T15:09:21.758Z,18.57
2019-05-28T15:11:53.595Z,18.67
2019-05-28T15:14:23.607Z,18.92
2019-05-28T15:16:53.687Z,18.70
2019-05-28T15:19:24.266Z,18.88
2019-05-28T15:21:54.347Z,18.82
2019-05-28T15:24:24.596Z,18.77
2019-05-28T15:26:57.700Z,18.52
2019-05-28T15:29:27.802Z,18.44
2019-05-28T15:31:57.820Z,18.55
2019-05-28T15:34:30.699Z,18.28
2019-05-28T15:37:00.714Z,18.28
2019-05-28T15:39:39.671Z,18.46
2019-05-28T15:42:02.600Z,18.35
2019-05-28T15:44:32.593Z,18.22
2019-05-28T15:47:02.694Z,18.04
2019-05-28T15:49:32.746Z,17.89
2019-05-28T15:52:07.796Z,17.66
2019-05-28T15:54:35.495Z,17.65
2019-05-28T15:57:05.485Z,17.55
2019-05-28T15:59:35.879Z,17.60
2019-05-28T16:02:05.870Z,17.72
2019-05-28T16:04:35.895Z,17.77
2019-05-28T16:07:07.531Z,17.62
2019-05-28T16:09:37.622Z,17.58
2019-05-28T16:12:07.799Z,17.63
2019-05-28T16:14:38.092Z,17.69
2019-05-28T16:17:08.298Z,17.82
2019-05-28T16:19:38.303Z,17.81
2019-05-28T16:22:08.827Z,17.72
2019-05-28T16:24:38.822Z,17.71
2019-05-28T16:27:08.853Z,17.54
2019-05-28T16:29:38.987Z,17.50
2019-05-28T16:32:09.182Z,17.27
2019-05-28T16:34:39.309Z,17.23
2019-05-28T16:37:09.341Z,17.29
2019-05-28T16:39:39.347Z,17.18
2019-05-28T16:42:09.364Z,17.12
2019-05-28T16:44:41.101Z,17.06
2019-05-28T16:47:18.538Z,17.09
2019-05-28T16:49:44.524Z,17.14
2019-05-28T16:52:14.548Z,16.99
2019-05-28T16:54:44.545Z,16.85
2019-05-28T16:57:14.633Z,16.99
2019-05-28T16:59:44.619Z,16.88
2019-05-28T17:02:14.641Z,16.94
2019-05-28T17:04:44.695Z,16.83
2019-05-28T17:07:14.782Z,16.83
2019-05-28T17:09:44.852Z,16.85
2019-05-28T17:12:15.942Z,16.84
2019-05-28T17:14:46.014Z,16.77
2019-05-28T17:17:16.097Z,16.69
2019-05-28T17:19:46.160Z,16.77
2019-05-28T17:22:18.836Z,16.78
2019-05-28T17:24:48.902Z,16.54
2019-05-28T17:27:18.981Z,16.61
2019-05-28T17:29:50.672Z,16.52
2019-05-28T17:32:20.867Z,16.53
2019-05-28T17:34:50.953Z,16.55
2019-05-28T17:37:21.103Z,16.50
2019-05-28T17:39:51.441Z,16.39
2019-05-28T17:42:21.534Z,16.30
2019-05-28T17:44:51.673Z,16.29
2019-05-28T17:47:21.766Z,16.30
2019-05-28T17:49:51.751Z,16.12
2019-05-28T17:52:21.778Z,16.18
2019-05-28T17:54:51.767Z,16.18
2019-05-28T17:57:21.795Z,16.23
2019-05-28T17:59:51.872Z,16.17
2019-05-28T18:02:23.482Z,16.19
2019-05-28T18:04:53.538Z,16.25
2019-05-28T18:07:23.575Z,16.19
2019-05-28T18:09:54.622Z,16.21
2019-05-28T18:12:26.296Z,16.18
2019-05-28T18:14:56.335Z,16.17
2019-05-28T18:17:26.332Z,16.19
2019-05-28T18:19:57.720Z,16.18
2019-05-28T18:22:28.938Z,16.16
2019-05-28T18:24:58.992Z,16.18
2019-05-28T18:27:29.089Z,15.97
2019-05-28T18:30:02.066Z,16.08
2019-05-28T18:32:32.609Z,16.11
2019-05-28T18:35:02.794Z,16.07
2019-05-28T18:37:35.938Z,15.97
2019-05-28T18:40:11.681Z,16.05
2019-05-28T18:42:41.853Z,15.93
2019-05-28T18:45:12.074Z,15.90
2019-05-28T18:47:42.157Z,15.68
2019-05-28T18:50:12.995Z,15.63
2019-05-28T18:52:44.697Z,15.53
2019-05-28T18:55:14.857Z,15.45
2019-05-28T18:57:50.617Z,15.41
2019-05-28T19:00:17.088Z,15.37
2019-05-28T19:02:48.925Z,15.34
2019-05-28T19:05:19.143Z,15.26
2019-05-28T19:07:49.521Z,15.32
2019-05-28T19:10:21.403Z,15.28
2019-05-28T19:12:51.420Z,15.13
2019-05-28T19:15:24.814Z,14.97
2019-05-28T19:17:54.922Z,14.92
2019-05-28T19:20:26.540Z,14.85
2019-05-28T19:22:56.620Z,14.87
2019-05-28T19:25:28.292Z,14.83
2019-05-28T19:27:58.381Z,14.79
2019-05-28T19:30:33.363Z,14.74
2019-05-28T19:33:05.555Z,14.54
2019-05-28T19:35:40.280Z,14.50
2019-05-28T19:38:12.231Z,14.31
2019-05-28T19:40:44.466Z,14.36
2019-05-28T19:43:15.649Z,14.28
2019-05-28T19:45:46.025Z,14.33
2019-05-28T19:48:16.040Z,14.25
2019-05-28T19:50:50.380Z,14.03
2019-05-28T19:53:20.423Z,14.08
2019-05-28T19:55:50.452Z,14.05
2019-05-28T19:58:20.516Z,14.02
2019-05-28T20:00:50.662Z,13.87
2019-05-28T20:03:20.701Z,13.87
2019-05-28T20:05:53.246Z,13.79
2019-05-28T20:08:23.385Z,13.69
2019-05-28T20:10:56.170Z,13.60
2019-05-28T20:13:26.235Z,13.51
2019-05-28T20:15:57.328Z,13.56
2019-05-28T20:18:27.582Z,13.62
2019-05-28T20:20:57.740Z,13.73
2019-05-28T20:23:27.755Z,13.68
2019-05-28T20:25:57.772Z,13.64
2019-05-28T20:28:28.856Z,13.68
2019-05-28T20:31:01.834Z,13.66
2019-05-28T20:33:32.394Z,13.52
2019-05-28T20:36:03.643Z,13.45
2019-05-28T20:38:33.794Z,13.52
2019-05-28T20:41:04.038Z,13.47
2019-05-28T20:43:34.106Z,13.48
2019-05-28T20:46:08.569Z,13.43
2019-05-28T20:48:38.567Z,13.43
2019-05-28T20:51:19.646Z,13.44
2019-05-28T20:53:40.416Z,13.45
2019-05-28T20:56:10.511Z,13.35
2019-05-28T20:58:40.862Z,13.30
2019-05-28T21:01:10.980Z,13.21
2019-05-28T21:03:40.988Z,13.15
2019-05-28T21:06:10.986Z,13.08
2019-05-28T21:08:42.529Z,13.07
2019-05-28T21:11:12.608Z,12.95
2019-05-28T21:13:42.626Z,12.97
2019-05-28T21:16:15.168Z,12.98
2019-05-28T21:18:44.335Z,13.03
2019-05-28T21:21:14.654Z,12.99
2019-05-28T21:23:44.673Z,13.03
2019-05-28T21:26:14.680Z,12.91
2019-05-28T21:28:44.826Z,12.90
2019-05-28T21:31:15.078Z,12.78
2019-05-28T21:33:45.078Z,12.74
2019-05-28T21:36:15.112Z,12.56
2019-05-28T21:38:45.131Z,12.42
2019-05-28T21:41:15.152Z,12.44
2019-05-28T21:43:45.172Z,12.44
2019-05-28T21:46:15.252Z,12.49
2019-05-28T21:48:45.282Z,12.50
2019-05-28T21:51:15.334Z,12.48
2019-05-28T21:53:45.348Z,12.50
2019-05-28T21:56:15.335Z,12.46
2019-05-28T21:58:46.554Z,12.52
2019-05-28T22:01:19.614Z,12.59
2019-05-28T22:03:49.624Z,12.56
2019-05-28T22:06:19.638Z,12.52
2019-05-28T22:08:49.659Z,12.41
2019-05-28T22:11:24.027Z,12.31
2019-05-28T22:13:54.104Z,12.31
2019-05-28T22:16:24.102Z,12.30
2019-05-28T22:18:54.245Z,12.23
2019-05-28T22:21:24.226Z,12.11
2019-05-28T22:23:58.380Z,11.83
2019-05-28T22:26:28.491Z,11.79
2019-05-28T22:28:59.419Z,11.72
2019-05-28T22:31:29.750Z,11.72
2019-05-28T22:34:01.013Z,11.69
2019-05-28T22:36:32.349Z,11.69
2019-05-28T22:39:06.671Z,11.68
2019-05-28T22:41:41.654Z,11.66
2019-05-28T22:44:11.810Z,11.76
2019-05-28T22:46:41.871Z,11.73
2019-05-28T22:49:11.885Z,11.72
2019-05-28T22:51:42.953Z,11.67
2019-05-28T22:54:12.967Z,11.69
2019-05-28T22:56:43.133Z,11.44
2019-05-28T22:59:13.146Z,11.43
2019-05-28T23:01:43.145Z,11.50
2019-05-28T23:04:14.711Z,11.25
2019-05-28T23:06:44.724Z,11.29
2019-05-28T23:09:14.959Z,11.28
2019-05-28T23:11:44.947Z,11.28
2019-05-28T23:14:15.529Z,11.27
2019-05-28T23:16:45.591Z,11.18
2019-05-28T23:19:16.087Z,11.19
2019-05-28T23:21:47.860Z,11.26
2019-05-28T23:24:20.498Z,11.05
2019-05-28T23:26:50.651Z,11.25
2019-05-28T23:29:20.664Z,11.32
2019-05-28T23:31:50.695Z,11.31
2019-05-28T23:34:20.687Z,11.27
2019-05-28T23:36:50.777Z,11.26
2019-05-28T23:39:20.791Z,11.06
2019-05-28T23:41:50.797Z,10.90
2019-05-28T23:44:20.815Z,10.92
2019-05-28T23:46:51.022Z,10.79
2019-05-28T23:49:21.022Z,10.79
2019-05-28T23:51:51.034Z,10.65
2019-05-28T23:54:21.032Z,10.68
2019-05-28T23:56:51.048Z,10.66
2019-05-28T23:59:23.715Z,10.69
